createdAt,value
2022-12-13T00:01:32.949Z,11.50
2022-12-13T00:04:03.836Z,10.85
2022-12-13T00:06:33.281Z,10.98
2022-12-13T00:09:02.683Z,11.48
2022-12-13T00:11:31.364Z,12.55
2022-12-13T00:14:02.081Z,9.85
2022-12-13T00:16:30.804Z,9.88
2022-12-13T00:19:01.092Z,12.88
2022-12-13T00:21:32.080Z,10.40
2022-12-13T00:24:02.289Z,9.88
2022-12-13T00:26:33.833Z,11.27
2022-12-13T00:29:05.955Z,11.77
2022-12-13T00:34:23.719Z,9.35
2022-12-13T00:36:53.208Z,11.23
2022-12-13T00:39:22.929Z,10.27
2022-12-13T00:41:52.342Z,13.13
2022-12-13T00:44:22.605Z,10.45
2022-12-13T00:46:52.295Z,12.68
2022-12-13T00:49:21.012Z,10.30
2022-12-13T00:51:50.961Z,11.48
2022-12-13T00:54:19.964Z,12.43
2022-12-13T00:56:48.566Z,11.05
2022-12-13T00:59:17.853Z,10.10
2022-12-13T01:01:48.271Z,12.40
2022-12-13T01:04:17.024Z,11.63
2022-12-13T01:06:50.058Z,12.25
2022-12-13T01:09:21.432Z,12.18
2022-12-13T01:11:50.445Z,12.98
2022-12-13T01:14:19.936Z,12.50
2022-12-13T01:16:49.846Z,11.73
2022-12-13T01:19:18.413Z,9.68
2022-12-13T01:21:47.283Z,11.43
2022-12-13T01:24:15.976Z,12.95
2022-12-13T01:26:45.335Z,11.23
2022-12-13T01:29:13.915Z,11.48
2022-12-13T01:31:42.500Z,10.15
2022-12-13T01:34:13.364Z,11.20
2022-12-13T01:36:43.508Z,10.38
2022-12-13T01:39:15.661Z,12.35
2022-12-13T01:41:45.563Z,11.20
2022-12-13T01:44:51.619Z,12.30
2022-12-13T01:47:24.018Z,13.15
2022-12-13T01:49:57.682Z,11.13
2022-12-13T01:52:33.822Z,10.63
2022-12-13T01:55:07.411Z,9.57
2022-12-13T01:57:43.743Z,8.82
2022-12-13T02:00:16.870Z,8.90
2022-12-13T02:02:46.338Z,11.45
2022-12-13T02:05:23.003Z,10.95
2022-12-13T02:07:52.560Z,11.18
2022-12-13T02:10:21.603Z,8.30
2022-12-13T02:12:50.384Z,9.48
2022-12-13T02:15:20.599Z,10.48
2022-12-13T02:18:16.289Z,12.73
2022-12-13T02:20:58.135Z,9.75
2022-12-13T02:26:51.182Z,15.52
2022-12-13T02:30:14.155Z,12.30
2022-12-13T02:32:57.456Z,11.02
2022-12-13T02:35:32.091Z,14.30
2022-12-13T02:38:10.508Z,12.63
2022-12-13T02:40:44.869Z,12.32
2022-12-13T02:43:21.215Z,13.82
2022-12-13T02:45:53.441Z,12.82
2022-12-13T02:48:29.181Z,12.70
2022-12-13T02:51:02.379Z,18.50
2022-12-13T02:53:33.924Z,13.45
2022-12-13T02:56:02.799Z,12.18
2022-12-13T02:58:35.075Z,12.13
2022-12-13T03:01:28.646Z,14.13
2022-12-13T03:04:08.510Z,13.73
2022-12-13T03:06:46.735Z,13.30
2022-12-13T03:09:28.707Z,14.57
2022-12-13T03:12:31.846Z,13.40
2022-12-13T03:15:08.627Z,15.18
2022-12-13T03:17:42.746Z,13.50
2022-12-13T03:20:22.875Z,12.48
2022-12-13T03:22:52.547Z,12.93
2022-12-13T03:25:30.950Z,16.02
2022-12-13T03:28:02.927Z,12.40
2022-12-13T03:30:32.098Z,15.20
2022-12-13T03:33:01.334Z,16.15
2022-12-13T03:35:34.950Z,13.57
2022-12-13T03:38:21.708Z,14.40
2022-12-13T03:40:54.779Z,16.05
2022-12-13T03:43:23.968Z,15.38
2022-12-13T03:45:53.116Z,14.70
2022-12-13T03:48:23.654Z,12.85
2022-12-13T03:50:55.272Z,13.88
2022-12-13T03:53:33.852Z,14.82
2022-12-13T03:56:05.088Z,14.35
2022-12-13T03:58:37.630Z,15.25
2022-12-13T04:01:09.040Z,16.27
2022-12-13T04:03:38.629Z,16.48
2022-12-13T04:06:09.748Z,14.35
2022-12-13T04:08:40.522Z,17.30
2022-12-13T04:11:23.700Z,16.33
2022-12-13T04:13:52.648Z,16.88
2022-12-13T04:16:22.445Z,14.18
2022-12-13T04:18:51.102Z,15.25
2022-12-13T04:21:21.143Z,16.80
2022-12-13T04:23:49.946Z,14.43
2022-12-13T04:26:18.557Z,16.92
2022-12-13T04:28:52.659Z,16.02
2022-12-13T04:31:23.624Z,17.52
2022-12-13T04:33:52.583Z,16.73
2022-12-13T04:36:31.795Z,14.85
2022-12-13T04:39:03.044Z,13.63
2022-12-13T04:41:37.063Z,16.48
2022-12-13T04:44:07.562Z,19.50
2022-12-13T04:47:00.995Z,16.55
2022-12-13T04:49:30.575Z,14.70
2022-12-13T04:52:02.104Z,14.05
2022-12-13T04:54:36.191Z,15.07
2022-12-13T04:57:08.592Z,15.10
2022-12-13T04:59:37.718Z,16.65
2022-12-13T05:02:11.893Z,14.27
2022-12-13T05:04:41.023Z,17.88
2022-12-13T05:07:11.016Z,17.92
2022-12-13T05:09:40.119Z,17.10
2022-12-13T05:12:21.785Z,17.35
2022-12-13T05:14:51.663Z,18.38
2022-12-13T05:17:20.850Z,17.58
2022-12-13T05:19:49.837Z,18.17
2022-12-13T05:22:21.372Z,16.25
2022-12-13T05:24:50.319Z,18.42
2022-12-13T05:27:26.234Z,17.77
2022-12-13T05:30:03.670Z,17.35
2022-12-13T05:32:44.221Z,17.75
2022-12-13T05:35:21.817Z,15.18
2022-12-13T05:37:55.540Z,17.45
2022-12-13T05:43:01.710Z,14.23
2022-12-13T05:45:31.779Z,13.57
2022-12-13T05:48:01.790Z,15.35
2022-12-13T05:50:34.102Z,18.25
2022-12-13T05:53:05.158Z,15.35
2022-12-13T05:55:33.769Z,18.08
2022-12-13T05:58:02.735Z,14.02
2022-12-13T06:00:32.410Z,15.10
2022-12-13T06:03:02.644Z,12.27
2022-12-13T06:05:32.112Z,13.57
2022-12-13T06:08:00.977Z,14.90
2022-12-13T06:10:34.134Z,12.23
2022-12-13T06:13:21.065Z,15.82
2022-12-13T06:15:51.931Z,14.02
2022-12-13T06:18:31.945Z,12.82
2022-12-13T06:21:06.100Z,13.63
2022-12-13T06:23:37.377Z,13.85
2022-12-13T06:26:08.586Z,13.20
2022-12-13T06:28:37.567Z,12.50
2022-12-13T06:31:07.273Z,14.50
2022-12-13T06:33:36.895Z,13.90
2022-12-13T06:36:06.959Z,16.48
2022-12-13T06:38:43.547Z,13.18
2022-12-13T06:41:15.739Z,15.70
2022-12-13T06:43:45.422Z,12.95
2022-12-13T06:46:14.989Z,11.65
2022-12-13T06:48:43.732Z,12.27
2022-12-13T06:51:12.647Z,13.20
2022-12-13T06:53:51.680Z,11.65
2022-12-13T06:56:23.009Z,12.23
2022-12-13T06:58:51.823Z,13.20
2022-12-13T07:01:24.261Z,14.32
2022-12-13T07:03:55.593Z,10.68
2022-12-13T07:06:25.997Z,11.52
2022-12-13T07:08:57.404Z,12.48
2022-12-13T07:11:29.995Z,14.82
2022-12-13T07:13:59.110Z,11.90
2022-12-13T07:16:29.692Z,13.57
2022-12-13T07:19:00.798Z,11.95
2022-12-13T07:21:30.922Z,11.77
2022-12-13T07:23:59.915Z,11.18
2022-12-13T07:26:30.134Z,12.48
2022-12-13T07:28:59.332Z,11.95
2022-12-13T07:31:28.507Z,13.07
2022-12-13T07:33:57.570Z,10.10
2022-12-13T07:36:26.294Z,11.88
2022-12-13T07:38:56.218Z,11.10
2022-12-13T07:41:26.090Z,11.45
2022-12-13T07:43:57.715Z,12.27
2022-12-13T07:46:32.420Z,15.10
2022-12-13T07:49:03.871Z,9.45
2022-12-13T07:51:35.427Z,11.52
2022-12-13T07:54:06.980Z,11.15
2022-12-13T07:56:37.792Z,13.20
2022-12-13T07:59:08.341Z,9.88
2022-12-13T08:01:37.211Z,13.00
2022-12-13T08:04:06.380Z,13.77
2022-12-13T08:06:37.199Z,11.60
2022-12-13T08:09:07.203Z,15.40
2022-12-13T08:11:36.280Z,10.75
2022-12-13T08:14:04.938Z,12.20
2022-12-13T08:16:35.556Z,15.88
2022-12-13T08:19:04.848Z,10.57
2022-12-13T08:21:55.664Z,12.60
2022-12-13T08:26:57.060Z,11.70
2022-12-13T08:29:34.206Z,11.40
2022-12-13T08:32:08.140Z,13.85
2022-12-13T08:34:36.805Z,13.82
2022-12-13T08:37:06.462Z,10.82
2022-12-13T08:39:38.365Z,10.02
2022-12-13T08:42:16.909Z,10.32
2022-12-13T08:44:52.256Z,9.93
2022-12-13T08:47:27.381Z,10.00
2022-12-13T08:50:03.143Z,10.63
2022-12-13T08:52:39.855Z,9.40
2022-12-13T08:55:14.826Z,10.43
2022-12-13T08:57:44.843Z,13.73
2022-12-13T09:00:15.692Z,12.38
2022-12-13T09:02:46.119Z,11.52
2022-12-13T09:05:32.564Z,9.55
2022-12-13T09:08:04.600Z,10.07
2022-12-13T09:11:11.534Z,8.80
2022-12-13T09:13:52.996Z,11.30
2022-12-13T09:16:35.738Z,15.90
2022-12-13T09:19:25.202Z,11.07
2022-12-13T09:22:02.927Z,11.43
2022-12-13T09:24:36.675Z,9.77
2022-12-13T09:27:09.182Z,10.43
2022-12-13T09:29:39.430Z,10.18
2022-12-13T09:32:08.525Z,9.93
2022-12-13T09:34:38.805Z,8.30
2022-12-13T09:37:09.337Z,7.72
2022-12-13T09:39:38.745Z,9.27
2022-12-13T09:42:14.626Z,8.90
2022-12-13T09:45:00.969Z,8.80
2022-12-13T09:47:36.283Z,8.38
2022-12-13T09:50:15.118Z,7.72
2022-12-13T09:52:46.949Z,8.20
2022-12-13T09:55:23.089Z,8.07
2022-12-13T09:57:53.561Z,11.07
2022-12-13T10:00:25.853Z,8.82
2022-12-13T10:02:57.390Z,9.43
2022-12-13T10:05:34.184Z,8.60
2022-12-13T10:08:10.875Z,8.90
2022-12-13T10:10:40.362Z,9.65
2022-12-13T10:13:18.475Z,7.50
2022-12-13T10:15:52.384Z,8.55
2022-12-13T10:18:28.736Z,8.40
2022-12-13T10:20:59.665Z,7.65
2022-12-13T10:23:42.650Z,8.95
2022-12-13T10:26:24.326Z,9.75
2022-12-13T10:29:05.248Z,9.75
2022-12-13T10:31:41.437Z,7.90
2022-12-13T10:34:21.828Z,8.55
2022-12-13T10:36:53.420Z,7.80
2022-12-13T10:39:39.907Z,9.23
2022-12-13T10:42:22.599Z,9.32
2022-12-13T10:45:11.977Z,10.60
2022-12-13T10:47:45.622Z,9.32
2022-12-13T10:50:25.903Z,8.75
2022-12-13T10:52:58.595Z,10.90
2022-12-13T10:55:32.012Z,9.75
2022-12-13T10:58:07.335Z,9.55
2022-12-13T11:00:45.168Z,9.38
2022-12-13T11:03:29.790Z,11.45
2022-12-13T11:06:05.492Z,8.80
2022-12-13T11:08:38.943Z,9.75
2022-12-13T11:11:10.253Z,13.82
2022-12-13T11:13:43.465Z,10.20
2022-12-13T11:16:24.385Z,7.53
2022-12-13T11:18:56.865Z,8.82
2022-12-13T11:21:27.774Z,8.77
2022-12-13T11:24:01.895Z,7.88
2022-12-13T11:26:34.132Z,9.93
2022-12-13T11:29:20.174Z,12.07
2022-12-13T11:32:02.920Z,11.90
2022-12-13T11:34:39.646Z,9.27
2022-12-13T11:37:19.441Z,9.77
2022-12-13T11:39:53.484Z,9.43
2022-12-13T11:42:34.637Z,11.75
2022-12-13T11:45:13.690Z,11.63
2022-12-13T11:47:59.750Z,15.38
2022-12-13T11:50:33.684Z,9.38
2022-12-13T11:53:20.602Z,12.68
2022-12-13T11:56:00.529Z,10.40
2022-12-13T12:01:31.363Z,9.52
2022-12-13T12:04:19.425Z,12.38
2022-12-13T12:06:53.128Z,12.07
2022-12-13T12:09:25.275Z,12.65
2022-12-13T12:12:02.296Z,10.80
2022-12-13T12:14:39.215Z,11.38
2022-12-13T12:17:07.780Z,10.38
2022-12-13T12:19:39.735Z,10.93
2022-12-13T12:22:23.095Z,12.60
2022-12-13T12:25:09.135Z,10.30
2022-12-13T12:27:46.119Z,9.27
2022-12-13T12:30:23.613Z,11.57
2022-12-13T12:32:58.295Z,10.45
2022-12-13T12:35:53.518Z,10.15
2022-12-13T12:38:54.293Z,8.40
2022-12-13T12:41:31.968Z,10.45
2022-12-13T12:44:13.282Z,11.68
2022-12-13T12:47:08.609Z,12.60
2022-12-13T12:50:20.959Z,10.82
2022-12-13T12:53:10.221Z,9.90
2022-12-13T12:55:50.005Z,9.77
2022-12-13T12:58:28.189Z,14.88
2022-12-13T13:01:19.979Z,10.88
2022-12-13T13:06:23.848Z,12.30
2022-12-13T13:08:59.431Z,13.95
2022-12-13T13:11:30.503Z,11.73
2022-12-13T13:14:04.411Z,13.00
2022-12-13T13:16:37.549Z,12.15
2022-12-13T13:19:07.371Z,14.27
2022-12-13T13:21:52.363Z,16.50
2022-12-13T13:24:24.207Z,13.48
2022-12-13T13:26:55.397Z,11.63
2022-12-13T13:29:32.917Z,12.55
2022-12-13T13:32:06.013Z,11.45
2022-12-13T13:34:39.772Z,12.32
2022-12-13T13:37:29.371Z,11.88
2022-12-13T13:40:00.952Z,12.25
2022-12-13T13:42:30.582Z,10.80
2022-12-13T13:45:24.641Z,11.45
2022-12-13T13:48:15.417Z,12.63
2022-12-13T13:51:22.464Z,14.20
2022-12-13T13:54:09.924Z,12.10
2022-12-13T13:57:06.394Z,11.98
2022-12-13T14:00:08.173Z,12.95
2022-12-13T14:03:22.289Z,11.93
2022-12-13T14:06:31.270Z,15.48
2022-12-13T14:09:24.911Z,13.10
2022-12-13T14:12:27.179Z,14.02
2022-12-13T14:15:24.823Z,12.98
2022-12-13T14:18:30.841Z,16.05
2022-12-13T14:21:09.022Z,15.30
2022-12-13T14:23:52.285Z,13.68
2022-12-13T14:26:34.367Z,14.05
2022-12-13T14:29:05.504Z,16.67
2022-12-13T14:31:38.109Z,21.38
2022-12-13T14:34:08.854Z,18.35
2022-12-13T14:36:39.292Z,17.33
2022-12-13T14:39:25.554Z,15.93
2022-12-13T14:41:57.739Z,15.30
2022-12-13T14:44:28.881Z,17.95
2022-12-13T14:47:00.409Z,16.15
2022-12-13T14:49:31.145Z,16.08
2022-12-13T14:52:03.886Z,17.15
2022-12-13T14:54:41.304Z,19.20
2022-12-13T14:57:18.670Z,18.70
2022-12-13T14:59:50.573Z,26.45
2022-12-13T15:02:30.066Z,23.92
2022-12-13T15:05:02.014Z,19.05
2022-12-13T15:07:34.099Z,19.35
2022-12-13T15:10:05.800Z,18.90
2022-12-13T15:12:36.032Z,22.52
2022-12-13T15:15:22.785Z,19.08
2022-12-13T15:18:07.916Z,22.60
2022-12-13T15:20:41.811Z,17.05
2022-12-13T15:23:22.864Z,18.42
2022-12-13T15:26:02.432Z,18.52
2022-12-13T15:28:38.404Z,18.27
2022-12-13T15:31:08.275Z,16.40
2022-12-13T15:33:42.731Z,16.08
2022-12-13T15:36:22.023Z,17.30
2022-12-13T15:39:02.322Z,16.33
2022-12-13T15:41:36.866Z,18.92
2022-12-13T15:44:19.760Z,18.73
2022-12-13T15:46:50.710Z,18.83
2022-12-13T15:49:28.505Z,19.67
2022-12-13T15:51:58.435Z,23.05
2022-12-13T15:54:28.812Z,19.88
2022-12-13T15:57:02.956Z,24.88
2022-12-13T15:59:34.970Z,23.17
2022-12-13T16:02:04.631Z,23.88
2022-12-13T16:04:34.762Z,26.05
2022-12-13T16:07:03.572Z,20.70
2022-12-13T16:09:36.537Z,22.00
2022-12-13T16:12:07.903Z,19.92
2022-12-13T16:17:26.323Z,23.65
2022-12-13T16:19:56.461Z,22.60
2022-12-13T16:22:25.345Z,23.10
2022-12-13T16:24:56.639Z,22.30
2022-12-13T16:27:25.718Z,20.48
2022-12-13T16:29:55.745Z,19.58
2022-12-13T16:32:24.404Z,19.75
2022-12-13T16:34:53.134Z,21.70
2022-12-13T16:37:27.563Z,20.25
2022-12-13T16:39:57.560Z,21.67
2022-12-13T16:42:27.549Z,20.33
2022-12-13T16:45:32.465Z,24.55
2022-12-13T16:47:49.791Z,19.42
2022-12-13T16:50:20.888Z,28.17
2022-12-13T16:52:50.319Z,28.88
2022-12-13T16:55:18.884Z,28.42
2022-12-13T16:57:57.829Z,30.92
2022-12-13T17:00:29.752Z,21.65
2022-12-13T17:03:00.313Z,26.55
2022-12-13T17:05:31.310Z,23.77
2022-12-13T17:08:00.441Z,28.63
2022-12-13T17:10:29.807Z,27.85
2022-12-13T17:12:58.856Z,33.70
2022-12-13T17:15:29.363Z,33.65
2022-12-13T17:17:58.414Z,19.93
2022-12-13T17:20:28.352Z,28.17
2022-12-13T17:22:57.167Z,26.23
2022-12-13T17:25:25.834Z,27.58
2022-12-13T17:27:54.670Z,23.90
2022-12-13T17:30:24.922Z,22.10
2022-12-13T17:32:55.227Z,22.45
2022-12-13T17:35:27.298Z,22.55
2022-12-13T17:37:56.440Z,21.80
2022-12-13T17:40:25.431Z,23.20
2022-12-13T17:42:54.397Z,21.98
2022-12-13T17:45:23.570Z,24.98
2022-12-13T17:47:52.019Z,24.98
2022-12-13T17:50:22.643Z,21.23
2022-12-13T17:52:51.316Z,18.45
2022-12-13T17:55:20.180Z,20.13
2022-12-13T17:57:49.371Z,25.05
2022-12-13T18:00:18.579Z,23.10
2022-12-13T18:02:55.371Z,23.88
2022-12-13T18:05:26.625Z,23.48
2022-12-13T18:07:55.580Z,21.60
2022-12-13T18:10:29.581Z,25.65
2022-12-13T18:12:59.254Z,29.90
2022-12-13T18:15:27.829Z,24.33
2022-12-13T18:18:13.922Z,25.33
2022-12-13T18:20:44.990Z,31.80
2022-12-13T18:23:14.600Z,26.13
2022-12-13T18:25:43.925Z,26.90
2022-12-13T18:28:12.786Z,24.35
2022-12-13T18:30:41.578Z,25.00
2022-12-13T18:33:12.630Z,23.50
2022-12-13T18:35:43.543Z,19.65
2022-12-13T18:38:12.377Z,20.75
2022-12-13T18:40:40.993Z,21.67
2022-12-13T18:43:10.269Z,22.63
2022-12-13T18:45:38.938Z,24.27
2022-12-13T18:48:08.346Z,20.27
2022-12-13T18:50:37.318Z,21.85
2022-12-13T18:53:07.588Z,26.88
2022-12-13T18:55:36.669Z,20.95
2022-12-13T18:58:05.513Z,23.20
2022-12-13T19:00:34.192Z,23.30
2022-12-13T19:03:03.107Z,23.85
2022-12-13T19:05:32.041Z,25.52
2022-12-13T19:08:01.059Z,21.48
2022-12-13T19:10:31.328Z,21.88
2022-12-13T19:13:00.850Z,23.13
2022-12-13T19:15:29.643Z,25.95
2022-12-13T19:17:58.460Z,25.77
2022-12-13T19:20:27.396Z,29.25
2022-12-13T19:22:56.375Z,29.90
2022-12-13T19:25:25.229Z,37.38
2022-12-13T19:27:56.905Z,36.78
2022-12-13T19:30:26.373Z,38.70
2022-12-13T19:32:55.037Z,45.45
2022-12-13T19:35:23.919Z,35.42
2022-12-13T19:37:53.799Z,41.70
2022-12-13T19:40:23.199Z,32.95
2022-12-13T19:42:52.090Z,34.83
2022-12-13T19:45:22.642Z,28.95
2022-12-13T19:47:51.240Z,29.25
2022-12-13T19:50:20.792Z,30.83
2022-12-13T19:52:49.826Z,37.17
2022-12-13T19:55:18.719Z,37.80
2022-12-13T19:57:47.645Z,38.58
2022-12-13T20:00:17.402Z,43.00
2022-12-13T20:02:47.927Z,42.92
2022-12-13T20:05:16.629Z,51.00
2022-12-13T20:07:45.861Z,39.95
2022-12-13T20:10:17.598Z,48.33
2022-12-13T20:12:46.990Z,40.28
2022-12-13T20:15:15.593Z,39.22
2022-12-13T20:17:44.118Z,33.45
2022-12-13T20:20:14.533Z,34.03
2022-12-13T20:22:43.173Z,33.05
2022-12-13T20:25:13.507Z,37.03
2022-12-13T20:27:44.265Z,35.03
2022-12-13T20:30:14.817Z,34.17
2022-12-13T20:32:44.465Z,27.98
2022-12-13T20:35:14.459Z,30.48
2022-12-13T20:37:43.374Z,28.40
2022-12-13T20:40:21.595Z,28.92
2022-12-13T20:42:53.442Z,32.40
2022-12-13T20:45:22.251Z,26.15
2022-12-13T20:47:50.786Z,30.38
2022-12-13T20:50:21.518Z,32.53
2022-12-13T20:55:22.582Z,36.10
2022-12-13T20:57:51.108Z,33.15
2022-12-13T21:00:19.904Z,44.15
2022-12-13T21:02:48.551Z,46.55
2022-12-13T21:05:20.734Z,43.30
2022-12-13T21:08:08.490Z,43.85
2022-12-13T21:10:37.307Z,42.35
2022-12-13T21:13:05.914Z,41.70
2022-12-13T21:15:35.522Z,35.47
2022-12-13T21:18:04.554Z,37.95
2022-12-13T21:20:33.757Z,30.45
2022-12-13T21:23:03.982Z,25.80
2022-12-13T21:25:32.776Z,31.20
2022-12-13T21:28:01.865Z,24.42
2022-12-13T21:30:31.784Z,22.08
2022-12-13T21:33:00.917Z,26.08
2022-12-13T21:35:30.750Z,29.33
2022-12-13T21:38:05.002Z,26.17
2022-12-13T21:40:35.535Z,24.10
2022-12-13T21:43:04.081Z,26.48
2022-12-13T21:45:34.450Z,27.02
2022-12-13T21:48:03.224Z,26.77
2022-12-13T21:50:32.279Z,27.02
2022-12-13T21:53:01.340Z,24.60
2022-12-13T21:55:38.965Z,25.00
2022-12-13T21:58:28.720Z,26.23
2022-12-13T22:00:58.251Z,25.15
2022-12-13T22:03:26.899Z,22.30
2022-12-13T22:05:55.661Z,26.85
2022-12-13T22:08:24.768Z,22.35
2022-12-13T22:11:13.082Z,25.05
2022-12-13T22:13:48.362Z,36.42
2022-12-13T22:16:17.246Z,27.02
2022-12-13T22:18:46.295Z,35.72
2022-12-13T22:21:14.880Z,28.77
2022-12-13T22:23:43.607Z,30.90
2022-12-13T22:26:12.333Z,37.60
2022-12-13T22:28:40.894Z,39.10
2022-12-13T22:31:11.030Z,36.75
2022-12-13T22:33:39.654Z,37.35
2022-12-13T22:36:08.640Z,41.15
2022-12-13T22:38:37.399Z,56.05
2022-12-13T22:41:07.138Z,46.95
2022-12-13T22:43:36.286Z,57.20
2022-12-13T22:46:05.699Z,49.28
2022-12-13T22:48:36.335Z,44.30
2022-12-13T22:51:05.860Z,40.05
2022-12-13T22:53:34.921Z,43.67
2022-12-13T22:56:08.090Z,33.30
2022-12-13T22:58:37.205Z,33.88
2022-12-13T23:01:10.329Z,40.00
2022-12-13T23:03:41.441Z,36.58
2022-12-13T23:06:14.625Z,39.92
2022-12-13T23:08:45.976Z,44.85
2022-12-13T23:11:32.539Z,34.83
2022-12-13T23:14:03.326Z,36.17
2022-12-13T23:16:33.651Z,43.25
2022-12-13T23:19:39.911Z,41.53
2022-12-13T23:21:55.071Z,34.03
2022-12-13T23:24:23.656Z,43.35
2022-12-13T23:26:53.689Z,38.40
2022-12-13T23:29:22.323Z,48.30
2022-12-13T23:31:50.774Z,46.17
2022-12-13T23:34:21.502Z,43.17
2022-12-13T23:36:50.153Z,38.22
2022-12-13T23:39:18.605Z,37.35
2022-12-13T23:41:47.018Z,32.42
2022-12-13T23:44:15.499Z,38.10
2022-12-13T23:46:46.470Z,29.35
2022-12-13T23:49:18.238Z,28.58
2022-12-13T23:51:48.930Z,26.73
2022-12-13T23:54:19.615Z,25.02
2022-12-13T23:56:49.469Z,27.60
2022-12-13T23:59:18.949Z,24.30
